This is the latest recevied weather packets stored in our database for station/object KC9GSD. If no packets are shown the sender has not sent any weather packets the latest 1 day(s).
| Time | Temp. | Humidity | Pressure | Rain* | Wind** | Luminosity | Snow |
|---|---|---|---|---|---|---|---|
| 1778000674 | 22.78° C | 43% | 1014.8 hPa | 0 mm | 2.24 m/s, 197° | 767 W/m² | - |
| 1778000370 | 22.78° C | 48% | 1014.7 hPa | 0 mm | 0.89 m/s, 157° | 845 W/m² | - |
| 1778000066 | 22.22° C | 53% | 1014.8 hPa | 0 mm | 0.89 m/s, 70° | 608 W/m² | - |
| 1777999761 | 22.78° C | 47% | 1014.8 hPa | 0 mm | 2.68 m/s, 146° | 743 W/m² | - |
| 1777999458 | 22.22° C | 48% | 1014.8 hPa | 0 mm | 1.34 m/s, 235° | 712 W/m² | - |
| 1777999156 | 22.22° C | 47% | 1014.7 hPa | 0 mm | 2.68 m/s, 160° | 782 W/m² | - |
| 1777998855 | 22.22° C | 49% | 1014.9 hPa | 0 mm | 0.89 m/s, 286° | 732 W/m² | - |
| 1777998554 | 22.22° C | 45% | 1014.8 hPa | 0 mm | 1.79 m/s, 179° | 778 W/m² | - |
| 1777998249 | 22.78° C | 50% | 1014.6 hPa | 0 mm | 1.34 m/s, 169° | 773 W/m² | - |
| 1777997946 | 22.22° C | 51% | 1014.6 hPa | 0 mm | 0.89 m/s, 157° | 757 W/m² | - |
| 1777997643 | 23.33° C | 51% | 1014.5 hPa | 0 mm | 0.45 m/s, 144° | 754 W/m² | - |
| 1777997340 | 22.22° C | 52% | 1014.4 hPa | 0 mm | 0.89 m/s, 137° | 740 W/m² | - |
| 1777997039 | 22.78° C | 48% | 1014.5 hPa | 0 mm | 2.24 m/s, 177° | 737 W/m² | - |
| 1777996735 | 22.22° C | 57% | 1014.6 hPa | 0 mm | 0.45 m/s, 144° | 726 W/m² | - |
| 1777996430 | 22.78° C | 47% | 1014.7 hPa | 0 mm | 1.79 m/s, 205° | 710 W/m² | - |
| 1777996127 | 22.78° C | 57% | 1014.6 hPa | 0 mm | 0.45 m/s, 136° | 703 W/m² | - |
| 1777995824 | 22.22° C | 52% | 1014.7 hPa | 0 mm | 1.79 m/s, 148° | 696 W/m² | - |
| 1777995520 | 22.22° C | 52% | 1014.5 hPa | 0 mm | 1.79 m/s, 149° | 680 W/m² | - |
| 1777995217 | 22.78° C | 53% | 1014.3 hPa | 0 mm | 0.45 m/s, 159° | 658 W/m² | - |
| 1777994915 | 21.67° C | 55% | 1014.5 hPa | 0 mm | 1.34 m/s, 141° | 630 W/m² | - |
| 1777994612 | 22.22° C | 50% | 1014.6 hPa | 0 mm | 0.89 m/s, 124° | 660 W/m² | - |
| 1777994311 | 22.22° C | 55% | 1014.6 hPa | 0 mm | 0.45 m/s, 144° | 620 W/m² | - |
| 1777994009 | 22.22° C | 55% | 1014.9 hPa | 0 mm | 1.34 m/s, 147° | 633 W/m² | - |
| 1777993706 | 22.22° C | 52% | 1014.8 hPa | 0 mm | 0.45 m/s, 196° | 617 W/m² | - |
| 1777993403 | 22.22° C | 50% | 1014.8 hPa | 0 mm | 0.45 m/s, 150° | 603 W/m² | - |
* Rain latest hour (hover to see other rain measurements)
** Current wind speed in m/s (hover to see current wind gust speed)